sensor_id;sensor_type;location;lat;lon;timestamp;pressure;altitude;pressure_sealevel;temperature;humidity
30873;BME280;17579;42.690;2.586;2023-03-16T00:00:52;97178.78;;;13.40;51.94
30873;BME280;17579;42.690;2.586;2023-03-16T00:03:18;97179.94;;;13.37;51.95
30873;BME280;17579;42.690;2.586;2023-03-16T00:05:45;97176.78;;;13.33;51.80
30873;BME280;17579;42.690;2.586;2023-03-16T00:08:11;97178.75;;;13.31;51.99
30873;BME280;17579;42.690;2.586;2023-03-16T00:10:37;97167.47;;;13.29;52.34
30873;BME280;17579;42.690;2.586;2023-03-16T00:13:02;97166.94;;;13.26;52.11
30873;BME280;17579;42.690;2.586;2023-03-16T00:15:28;97170.63;;;13.25;52.15
30873;BME280;17579;42.690;2.586;2023-03-16T00:17:54;97172.59;;;13.23;52.10
30873;BME280;17579;42.690;2.586;2023-03-16T00:20:20;97180.41;;;13.24;52.16
30873;BME280;17579;42.690;2.586;2023-03-16T00:22:47;97172.44;;;13.24;52.41
30873;BME280;17579;42.690;2.586;2023-03-16T00:25:13;97167.28;;;13.23;52.07
30873;BME280;17579;42.690;2.586;2023-03-16T00:27:39;97167.28;;;13.23;52.27
30873;BME280;17579;42.690;2.586;2023-03-16T00:30:06;97177.09;;;13.22;52.19
30873;BME280;17579;42.690;2.586;2023-03-16T00:32:34;97177.41;;;13.19;52.01
30873;BME280;17579;42.690;2.586;2023-03-16T00:35:01;97179.22;;;13.18;52.34
30873;BME280;17579;42.690;2.586;2023-03-16T00:37:28;97175.75;;;13.18;52.28
30873;BME280;17579;42.690;2.586;2023-03-16T00:39:54;97177.75;;;13.16;52.29
30873;BME280;17579;42.690;2.586;2023-03-16T00:42:21;97181.38;;;13.15;52.49
30873;BME280;17579;42.690;2.586;2023-03-16T00:44:52;97169.09;;;13.14;52.17
30873;BME280;17579;42.690;2.586;2023-03-16T00:47:23;97168.28;;;13.13;52.40
30873;BME280;17579;42.690;2.586;2023-03-16T00:49:49;97165.47;;;13.15;52.49
30873;BME280;17579;42.690;2.586;2023-03-16T00:52:37;97162.59;;;13.08;52.21
30873;BME280;17579;42.690;2.586;2023-03-16T00:55:15;97155.31;;;13.10;52.10
30873;BME280;17579;42.690;2.586;2023-03-16T00:57:40;97162.28;;;13.11;52.40
30873;BME280;17579;42.690;2.586;2023-03-16T01:00:06;97155.31;;;13.10;52.30
30873;BME280;17579;42.690;2.586;2023-03-16T01:02:42;97152.84;;;13.09;52.42
30873;BME280;17579;42.690;2.586;2023-03-16T01:05:11;97152.97;;;13.07;52.51
30873;BME280;17579;42.690;2.586;2023-03-16T01:07:39;97149.50;;;13.07;52.46
30873;BME280;17579;42.690;2.586;2023-03-16T01:10:05;97154.31;;;13.03;52.69
30873;BME280;17579;42.690;2.586;2023-03-16T01:12:32;97145.66;;;13.01;52.52
30873;BME280;17579;42.690;2.586;2023-03-16T01:14:58;97148.66;;;12.98;52.86
30873;BME280;17579;42.690;2.586;2023-03-16T01:17:24;97148.81;;;12.96;52.73
30873;BME280;17579;42.690;2.586;2023-03-16T01:19:50;97142.69;;;12.96;52.61
30873;BME280;17579;42.690;2.586;2023-03-16T01:22:16;97147.16;;;12.95;52.70
30873;BME280;17579;42.690;2.586;2023-03-16T01:24:43;97142.00;;;12.94;53.08
30873;BME280;17579;42.690;2.586;2023-03-16T01:27:10;97142.69;;;12.96;53.06
30873;BME280;17579;42.690;2.586;2023-03-16T01:29:37;97139.03;;;12.97;53.34
30873;BME280;17579;42.690;2.586;2023-03-16T01:32:03;97138.84;;;12.98;53.26
30873;BME280;17579;42.690;2.586;2023-03-16T01:34:29;97128.06;;;13.00;53.23
30873;BME280;17579;42.690;2.586;2023-03-16T01:36:56;97135.06;;;13.01;53.41
30873;BME280;17579;42.690;2.586;2023-03-16T01:39:21;97128.59;;;13.04;53.03
30873;BME280;17579;42.690;2.586;2023-03-16T01:41:47;97122.47;;;13.03;53.23
30873;BME280;17579;42.690;2.586;2023-03-16T01:44:16;97126.09;;;13.02;53.09
30873;BME280;17579;42.690;2.586;2023-03-16T01:46:42;97122.94;;;13.07;52.99
30873;BME280;17579;42.690;2.586;2023-03-16T01:49:12;97118.44;;;13.07;52.96
30873;BME280;17579;42.690;2.586;2023-03-16T01:51:53;97116.31;;;13.11;53.30
30873;BME280;17579;42.690;2.586;2023-03-16T01:56:58;97106.34;;;13.13;53.09
30873;BME280;17579;42.690;2.586;2023-03-16T01:59:31;97110.66;;;13.14;52.89
30873;BME280;17579;42.690;2.586;2023-03-16T02:01:57;97103.53;;;13.14;53.00
30873;BME280;17579;42.690;2.586;2023-03-16T02:06:50;97097.41;;;13.14;53.39
30873;BME280;17579;42.690;2.586;2023-03-16T02:09:19;97093.91;;;13.13;53.01
30873;BME280;17579;42.690;2.586;2023-03-16T02:11:46;97092.25;;;13.12;53.18
30873;BME280;17579;42.690;2.586;2023-03-16T02:14:12;97086.94;;;13.12;53.27
30873;BME280;17579;42.690;2.586;2023-03-16T02:16:39;97090.75;;;13.10;53.35
30873;BME280;17579;42.690;2.586;2023-03-16T02:19:10;97087.63;;;13.06;53.06
30873;BME280;17579;42.690;2.586;2023-03-16T02:24:22;97082.78;;;12.93;53.23
30873;BME280;17579;42.690;2.586;2023-03-16T02:29:26;97078.78;;;12.81;53.03
30873;BME280;17579;42.690;2.586;2023-03-16T02:31:55;97073.13;;;12.84;53.25
30873;BME280;17579;42.690;2.586;2023-03-16T02:34:22;97072.97;;;12.86;53.43
30873;BME280;17579;42.690;2.586;2023-03-16T02:36:50;97076.13;;;12.89;53.13
30873;BME280;17579;42.690;2.586;2023-03-16T02:39:17;97077.28;;;12.87;53.17
30873;BME280;17579;42.690;2.586;2023-03-16T02:41:43;97068.34;;;12.88;52.77
30873;BME280;17579;42.690;2.586;2023-03-16T02:44:13;97058.38;;;12.81;52.70
30873;BME280;17579;42.690;2.586;2023-03-16T02:46:42;97062.84;;;12.81;53.14
30873;BME280;17579;42.690;2.586;2023-03-16T02:49:19;97063.84;;;12.80;52.81
30873;BME280;17579;42.690;2.586;2023-03-16T02:51:47;97059.38;;;12.80;52.82
30873;BME280;17579;42.690;2.586;2023-03-16T02:54:13;97051.41;;;12.80;53.12
30873;BME280;17579;42.690;2.586;2023-03-16T02:56:38;97056.03;;;12.78;52.75
30873;BME280;17579;42.690;2.586;2023-03-16T02:59:04;97048.56;;;12.74;52.80
30873;BME280;17579;42.690;2.586;2023-03-16T03:01:30;97037.78;;;12.75;52.96
30873;BME280;17579;42.690;2.586;2023-03-16T03:03:56;97041.47;;;12.74;53.28
30873;BME280;17579;42.690;2.586;2023-03-16T03:06:22;97047.44;;;12.76;53.10
30873;BME280;17579;42.690;2.586;2023-03-16T03:08:49;97052.22;;;12.73;53.14
30873;BME280;17579;42.690;2.586;2023-03-16T03:11:16;97051.56;;;12.71;53.60
30873;BME280;17579;42.690;2.586;2023-03-16T03:13:44;97042.94;;;12.69;53.63
30873;BME280;17579;42.690;2.586;2023-03-16T03:16:11;97042.09;;;12.60;53.58
30873;BME280;17579;42.690;2.586;2023-03-16T03:18:37;97046.06;;;12.56;53.58
30873;BME280;17579;42.690;2.586;2023-03-16T03:21:02;97038.75;;;12.50;53.70
30873;BME280;17579;42.690;2.586;2023-03-16T03:23:28;97039.91;;;12.47;53.83
30873;BME280;17579;42.690;2.586;2023-03-16T03:25:56;97052.34;;;12.46;53.67
30873;BME280;17579;42.690;2.586;2023-03-16T03:28:21;97045.34;;;12.45;53.72
30873;BME280;17579;42.690;2.586;2023-03-16T03:30:47;97045.69;;;12.42;53.88
30873;BME280;17579;42.690;2.586;2023-03-16T03:33:12;97048.34;;;12.42;53.63
30873;BME280;17579;42.690;2.586;2023-03-16T03:35:38;97048.66;;;12.39;53.52
30873;BME280;17579;42.690;2.586;2023-03-16T03:38:04;97055.44;;;12.34;53.92
30873;BME280;17579;42.690;2.586;2023-03-16T03:40:32;97054.25;;;12.28;53.71
30873;BME280;17579;42.690;2.586;2023-03-16T03:42:58;97054.09;;;12.21;54.10
30873;BME280;17579;42.690;2.586;2023-03-16T03:45:24;97052.59;;;12.19;53.95
30873;BME280;17579;42.690;2.586;2023-03-16T03:47:49;97059.69;;;12.18;54.11
30873;BME280;17579;42.690;2.586;2023-03-16T03:50:18;97057.03;;;12.18;54.28
30873;BME280;17579;42.690;2.586;2023-03-16T03:52:47;97053.91;;;12.15;54.01
30873;BME280;17579;42.690;2.586;2023-03-16T03:55:12;97066.16;;;12.16;54.45
30873;BME280;17579;42.690;2.586;2023-03-16T03:57:38;97067.66;;;12.18;54.56
30873;BME280;17579;42.690;2.586;2023-03-16T04:00:05;97058.88;;;12.18;54.47
30873;BME280;17579;42.690;2.586;2023-03-16T04:02:31;97060.38;;;12.20;54.55
30873;BME280;17579;42.690;2.586;2023-03-16T04:04:57;97065.38;;;12.23;54.45
30873;BME280;17579;42.690;2.586;2023-03-16T04:07:23;97073.31;;;12.23;54.13
30873;BME280;17579;42.690;2.586;2023-03-16T04:09:48;97067.53;;;12.20;54.00
30873;BME280;17579;42.690;2.586;2023-03-16T04:12:14;97059.84;;;12.17;54.41
30873;BME280;17579;42.690;2.586;2023-03-16T04:14:39;97069.81;;;12.15;54.34
30873;BME280;17579;42.690;2.586;2023-03-16T04:17:05;97073.59;;;12.12;54.56
30873;BME280;17579;42.690;2.586;2023-03-16T04:19:31;97075.44;;;12.11;54.71
30873;BME280;17579;42.690;2.586;2023-03-16T04:21:57;97079.06;;;12.10;54.34
30873;BME280;17579;42.690;2.586;2023-03-16T04:24:22;97081.88;;;12.09;54.67
30873;BME280;17579;42.690;2.586;2023-03-16T04:26:48;97082.84;;;12.08;54.72
30873;BME280;17579;42.690;2.586;2023-03-16T04:29:14;97079.53;;;12.06;54.64
30873;BME280;17579;42.690;2.586;2023-03-16T04:31:42;97073.72;;;12.02;54.72
30873;BME280;17579;42.690;2.586;2023-03-16T04:34:09;97080.03;;;12.01;54.70
30873;BME280;17579;42.690;2.586;2023-03-16T04:36:36;97081.16;;;11.99;54.85
30873;BME280;17579;42.690;2.586;2023-03-16T04:39:03;97076.69;;;11.99;54.88
30873;BME280;17579;42.690;2.586;2023-03-16T04:41:29;97086.47;;;11.99;55.11
30873;BME280;17579;42.690;2.586;2023-03-16T04:43:55;97073.22;;;11.99;55.12
30873;BME280;17579;42.690;2.586;2023-03-16T04:46:22;97074.03;;;11.99;55.37
30873;BME280;17579;42.690;2.586;2023-03-16T04:48:48;97085.50;;;12.00;55.37
30873;BME280;17579;42.690;2.586;2023-03-16T04:51:14;97082.31;;;11.96;55.57
30873;BME280;17579;42.690;2.586;2023-03-16T04:53:40;97078.16;;;11.93;55.92
30873;BME280;17579;42.690;2.586;2023-03-16T04:56:06;97073.81;;;11.92;55.80
30873;BME280;17579;42.690;2.586;2023-03-16T04:58:32;97077.78;;;11.88;55.51
30873;BME280;17579;42.690;2.586;2023-03-16T05:00:58;97076.09;;;11.87;55.85
30873;BME280;17579;42.690;2.586;2023-03-16T05:03:24;97077.41;;;11.83;56.12
30873;BME280;17579;42.690;2.586;2023-03-16T05:05:50;97080.88;;;11.84;56.31
30873;BME280;17579;42.690;2.586;2023-03-16T05:08:16;97076.44;;;11.84;56.10
30873;BME280;17579;42.690;2.586;2023-03-16T05:10:41;97080.22;;;11.82;56.08
30873;BME280;17579;42.690;2.586;2023-03-16T05:13:09;97078.38;;;11.82;56.03
30873;BME280;17579;42.690;2.586;2023-03-16T05:15:34;97076.75;;;11.81;56.08
30873;BME280;17579;42.690;2.586;2023-03-16T05:18:00;97069.63;;;11.82;55.83
30873;BME280;17579;42.690;2.586;2023-03-16T05:20:26;97074.25;;;11.79;56.14
30873;BME280;17579;42.690;2.586;2023-03-16T05:22:51;97073.41;;;11.79;56.11
30873;BME280;17579;42.690;2.586;2023-03-16T05:25:18;97074.41;;;11.78;56.22
30873;BME280;17579;42.690;2.586;2023-03-16T05:27:45;97072.22;;;11.73;56.25
30873;BME280;17579;42.690;2.586;2023-03-16T05:30:12;97068.75;;;11.73;56.23
30873;BME280;17579;42.690;2.586;2023-03-16T05:32:38;97068.91;;;11.71;56.33
30873;BME280;17579;42.690;2.586;2023-03-16T05:35:05;97069.56;;;11.73;56.57
30873;BME280;17579;42.690;2.586;2023-03-16T05:37:31;97061.81;;;11.80;56.43
30873;BME280;17579;42.690;2.586;2023-03-16T05:39:59;97063.00;;;11.86;56.80
30873;BME280;17579;42.690;2.586;2023-03-16T05:42:25;97063.22;;;11.92;56.69
30873;BME280;17579;42.690;2.586;2023-03-16T05:44:52;97064.41;;;11.98;57.00
30873;BME280;17579;42.690;2.586;2023-03-16T05:47:19;97061.16;;;12.04;56.89
30873;BME280;17579;42.690;2.586;2023-03-16T05:49:45;97064.28;;;12.08;56.88
30873;BME280;17579;42.690;2.586;2023-03-16T05:52:10;97063.16;;;12.10;56.85
30873;BME280;17579;42.690;2.586;2023-03-16T05:54:36;97064.81;;;12.11;57.13
30873;BME280;17579;42.690;2.586;2023-03-16T05:57:02;97061.19;;;12.12;57.11
30873;BME280;17579;42.690;2.586;2023-03-16T05:59:28;97063.16;;;12.10;57.03
30873;BME280;17579;42.690;2.586;2023-03-16T06:01:53;97063.31;;;12.09;57.15
30873;BME280;17579;42.690;2.586;2023-03-16T06:04:19;97060.50;;;12.10;57.40
30873;BME280;17579;42.690;2.586;2023-03-16T06:06:44;97061.00;;;12.06;57.71
30873;BME280;17579;42.690;2.586;2023-03-16T06:09:10;97063.59;;;11.98;58.23
30873;BME280;17579;42.690;2.586;2023-03-16T06:11:35;97063.09;;;11.94;58.55
30873;BME280;17579;42.690;2.586;2023-03-16T06:14:01;97062.44;;;12.00;58.66
30873;BME280;17579;42.690;2.586;2023-03-16T06:16:27;97064.63;;;12.05;58.47
30873;BME280;17579;42.690;2.586;2023-03-16T06:18:53;97074.25;;;12.06;58.94
30873;BME280;17579;42.690;2.586;2023-03-16T06:21:21;97071.28;;;12.09;58.96
30873;BME280;17579;42.690;2.586;2023-03-16T06:23:47;97084.19;;;12.12;58.55
30873;BME280;17579;42.690;2.586;2023-03-16T06:26:13;97077.88;;;12.05;58.84
30873;BME280;17579;42.690;2.586;2023-03-16T06:28:39;97081.66;;;11.94;58.97
30873;BME280;17579;42.690;2.586;2023-03-16T06:31:05;97084.31;;;11.94;59.31
30873;BME280;17579;42.690;2.586;2023-03-16T06:33:31;97088.50;;;11.52;62.75
30873;BME280;17579;42.690;2.586;2023-03-16T06:36:00;97090.00;;;11.81;60.35
30873;BME280;17579;42.690;2.586;2023-03-16T06:38:26;97095.47;;;11.88;60.07
30873;BME280;17579;42.690;2.586;2023-03-16T06:40:53;97101.25;;;11.83;60.05
30873;BME280;17579;42.690;2.586;2023-03-16T06:43:19;97100.78;;;11.88;60.18
30873;BME280;17579;42.690;2.586;2023-03-16T06:45:44;97098.66;;;11.91;60.15
30873;BME280;17579;42.690;2.586;2023-03-16T06:48:10;97095.03;;;11.92;59.89
30873;BME280;17579;42.690;2.586;2023-03-16T06:50:36;97097.56;;;11.94;60.00
30873;BME280;17579;42.690;2.586;2023-03-16T06:53:02;97098.22;;;11.96;60.31
30873;BME280;17579;42.690;2.586;2023-03-16T06:55:27;97097.41;;;11.95;60.28
30873;BME280;17579;42.690;2.586;2023-03-16T06:57:53;97103.81;;;11.93;60.16
30873;BME280;17579;42.690;2.586;2023-03-16T07:00:19;97100.47;;;11.91;60.64
30873;BME280;17579;42.690;2.586;2023-03-16T07:02:45;97104.28;;;11.88;60.73
30873;BME280;17579;42.690;2.586;2023-03-16T07:05:11;97107.59;;;11.90;60.68
30873;BME280;17579;42.690;2.586;2023-03-16T07:07:40;97112.88;;;11.90;60.68
30873;BME280;17579;42.690;2.586;2023-03-16T07:10:12;97110.81;;;11.94;60.43
30873;BME280;17579;42.690;2.586;2023-03-16T07:12:39;97112.50;;;12.03;60.79
30873;BME280;17579;42.690;2.586;2023-03-16T07:15:05;97111.50;;;12.04;60.68
30873;BME280;17579;42.690;2.586;2023-03-16T07:17:31;97115.53;;;12.08;60.35
30873;BME280;17579;42.690;2.586;2023-03-16T07:19:56;97123.09;;;12.03;60.30
30873;BME280;17579;42.690;2.586;2023-03-16T07:22:22;97120.59;;;12.02;60.28
30873;BME280;17579;42.690;2.586;2023-03-16T07:24:48;97128.56;;;12.02;60.61
30873;BME280;17579;42.690;2.586;2023-03-16T07:27:20;97126.22;;;11.99;59.94
30873;BME280;17579;42.690;2.586;2023-03-16T07:29:48;97128.94;;;11.89;60.07
30873;BME280;17579;42.690;2.586;2023-03-16T07:32:16;97125.63;;;11.87;60.19
30873;BME280;17579;42.690;2.586;2023-03-16T07:34:41;97128.56;;;11.84;60.14
30873;BME280;17579;42.690;2.586;2023-03-16T07:37:07;97134.72;;;11.84;60.33
30873;BME280;17579;42.690;2.586;2023-03-16T07:39:35;97126.94;;;11.83;60.03
30873;BME280;17579;42.690;2.586;2023-03-16T07:42:00;97127.44;;;11.86;60.11
30873;BME280;17579;42.690;2.586;2023-03-16T07:44:27;97133.28;;;11.90;59.85
30873;BME280;17579;42.690;2.586;2023-03-16T07:46:52;97135.91;;;11.90;59.79
30873;BME280;17579;42.690;2.586;2023-03-16T07:49:18;97130.78;;;11.88;59.78
30873;BME280;17579;42.690;2.586;2023-03-16T07:51:44;97127.66;;;11.93;60.07
30873;BME280;17579;42.690;2.586;2023-03-16T07:54:10;97129.19;;;11.95;59.59
30873;BME280;17579;42.690;2.586;2023-03-16T07:56:35;97133.13;;;11.91;59.73
30873;BME280;17579;42.690;2.586;2023-03-16T07:59:01;97137.56;;;11.91;59.47
30873;BME280;17579;42.690;2.586;2023-03-16T08:01:27;97146.22;;;11.93;59.38
30873;BME280;17579;42.690;2.586;2023-03-16T08:03:53;97144.03;;;11.88;59.52
30873;BME280;17579;42.690;2.586;2023-03-16T08:06:19;97146.84;;;11.87;59.78
30873;BME280;17579;42.690;2.586;2023-03-16T08:08:45;97154.78;;;11.87;59.74
30873;BME280;17579;42.690;2.586;2023-03-16T08:11:11;97145.00;;;11.87;59.32
30873;BME280;17579;42.690;2.586;2023-03-16T08:13:37;97154.25;;;11.83;59.18
30873;BME280;17579;42.690;2.586;2023-03-16T08:16:03;97149.78;;;11.84;59.15
30873;BME280;17579;42.690;2.586;2023-03-16T08:18:32;97162.03;;;11.85;59.04
30873;BME280;17579;42.690;2.586;2023-03-16T08:20:59;97162.75;;;11.87;58.92
30873;BME280;17579;42.690;2.586;2023-03-16T08:23:24;97154.78;;;11.87;59.02
30873;BME280;17579;42.690;2.586;2023-03-16T08:25:52;97153.63;;;11.89;58.70
30873;BME280;17579;42.690;2.586;2023-03-16T08:28:18;97152.91;;;11.97;58.71
30873;BME280;17579;42.690;2.586;2023-03-16T08:30:47;97151.75;;;12.00;58.17
30873;BME280;17579;42.690;2.586;2023-03-16T08:33:13;97155.72;;;12.04;58.18
30873;BME280;17579;42.690;2.586;2023-03-16T08:35:43;97158.09;;;12.07;57.85
30873;BME280;17579;42.690;2.586;2023-03-16T08:38:10;97157.88;;;12.00;57.80
30873;BME280;17579;42.690;2.586;2023-03-16T08:40:36;97161.66;;;11.98;57.98
30873;BME280;17579;42.690;2.586;2023-03-16T08:43:05;97155.22;;;12.00;58.35
30873;BME280;17579;42.690;2.586;2023-03-16T08:45:30;97160.75;;;12.07;57.92
30873;BME280;17579;42.690;2.586;2023-03-16T08:47:56;97162.06;;;12.11;57.33
30873;BME280;17579;42.690;2.586;2023-03-16T08:50:22;97159.78;;;12.16;57.50
30873;BME280;17579;42.690;2.586;2023-03-16T08:52:47;97159.78;;;12.16;57.19
30873;BME280;17579;42.690;2.586;2023-03-16T08:55:13;97161.97;;;12.21;57.47
30873;BME280;17579;42.690;2.586;2023-03-16T08:57:40;97169.59;;;12.24;56.72
30873;BME280;17579;42.690;2.586;2023-03-16T09:00:20;97165.09;;;12.16;56.77
30873;BME280;17579;42.690;2.586;2023-03-16T09:02:46;97159.41;;;12.11;57.02
30873;BME280;17579;42.690;2.586;2023-03-16T09:05:13;97152.31;;;12.11;57.23
30873;BME280;17579;42.690;2.586;2023-03-16T09:07:39;97157.97;;;12.17;57.25
30873;BME280;17579;42.690;2.586;2023-03-16T09:10:07;97163.94;;;12.19;56.83
30873;BME280;17579;42.690;2.586;2023-03-16T09:12:35;97168.72;;;12.15;57.21
30873;BME280;17579;42.690;2.586;2023-03-16T09:15:01;97159.63;;;12.18;56.82
30873;BME280;17579;42.690;2.586;2023-03-16T09:17:26;97157.97;;;12.17;56.53
30873;BME280;17579;42.690;2.586;2023-03-16T09:19:53;97158.28;;;12.13;57.14
30873;BME280;17579;42.690;2.586;2023-03-16T09:22:20;97158.13;;;12.15;56.88
30873;BME280;17579;42.690;2.586;2023-03-16T09:24:47;97159.78;;;12.16;57.39
30873;BME280;17579;42.690;2.586;2023-03-16T09:27:14;97152.22;;;12.21;56.97
30873;BME280;17579;42.690;2.586;2023-03-16T09:29:41;97143.25;;;12.22;57.24
30873;BME280;17579;42.690;2.586;2023-03-16T09:32:07;97145.28;;;12.28;57.13
30873;BME280;17579;42.690;2.586;2023-03-16T09:34:33;97144.09;;;12.31;57.07
30873;BME280;17579;42.690;2.586;2023-03-16T09:36:59;97138.81;;;12.31;57.12
30873;BME280;17579;42.690;2.586;2023-03-16T09:39:25;97138.81;;;12.31;56.67
30873;BME280;17579;42.690;2.586;2023-03-16T09:41:53;97133.66;;;12.29;56.95
30873;BME280;17579;42.690;2.586;2023-03-16T09:46:50;97141.00;;;12.36;56.90
30873;BME280;17579;42.690;2.586;2023-03-16T09:49:19;97138.50;;;12.34;56.97
30873;BME280;17579;42.690;2.586;2023-03-16T09:51:49;97131.59;;;12.41;57.33
30873;BME280;17579;42.690;2.586;2023-03-16T09:54:19;97126.97;;;12.52;57.14
30873;BME280;17579;42.690;2.586;2023-03-16T09:56:47;97119.88;;;12.60;57.19
30873;BME280;17579;42.690;2.586;2023-03-16T09:59:24;97114.41;;;12.62;56.90
30873;BME280;17579;42.690;2.586;2023-03-16T10:02:18;97115.41;;;12.69;56.96
30873;BME280;17579;42.690;2.586;2023-03-16T10:05:01;97111.78;;;12.87;56.84
30873;BME280;17579;42.690;2.586;2023-03-16T10:12:51;97103.69;;;13.13;56.18
30873;BME280;17579;42.690;2.586;2023-03-16T10:15:22;97113.50;;;13.12;56.01
30873;BME280;17579;42.690;2.586;2023-03-16T10:17:54;97101.72;;;13.15;55.58
30873;BME280;17579;42.690;2.586;2023-03-16T10:20:23;97096.59;;;13.22;56.03
30873;BME280;17579;42.690;2.586;2023-03-16T10:22:52;97092.91;;;13.31;55.57
30873;BME280;17579;42.690;2.586;2023-03-16T10:25:26;97103.72;;;13.29;55.85
30873;BME280;17579;42.690;2.586;2023-03-16T10:27:55;97099.91;;;13.32;55.68
30873;BME280;17579;42.690;2.586;2023-03-16T10:30:28;97087.81;;;13.38;55.83
30873;BME280;17579;42.690;2.586;2023-03-16T10:33:01;97090.28;;;13.47;55.43
30873;BME280;17579;42.690;2.586;2023-03-16T10:35:37;97085.47;;;13.51;55.17
30873;BME280;17579;42.690;2.586;2023-03-16T10:40:46;97093.28;;;13.61;54.72
30873;BME280;17579;42.690;2.586;2023-03-16T10:43:13;97091.94;;;13.57;55.46
30873;BME280;17579;42.690;2.586;2023-03-16T10:45:41;97085.63;;;13.58;54.83
30873;BME280;17579;42.690;2.586;2023-03-16T10:48:12;97081.31;;;13.65;55.40
30873;BME280;17579;42.690;2.586;2023-03-16T10:50:40;97074.31;;;13.72;55.31
30873;BME280;17579;42.690;2.586;2023-03-16T10:53:17;97083.47;;;13.69;54.82
30873;BME280;17579;42.690;2.586;2023-03-16T10:55:46;97080.28;;;13.74;54.92
30873;BME280;17579;42.690;2.586;2023-03-16T10:58:22;97078.78;;;13.72;54.82
30873;BME280;17579;42.690;2.586;2023-03-16T11:00:57;97084.25;;;13.78;54.80
30873;BME280;17579;42.690;2.586;2023-03-16T11:03:24;97077.28;;;13.77;55.06
30873;BME280;17579;42.690;2.586;2023-03-16T11:08:22;97069.19;;;13.71;54.42
30873;BME280;17579;42.690;2.586;2023-03-16T11:13:19;97064.34;;;13.66;54.59
30873;BME280;17579;42.690;2.586;2023-03-16T11:15:47;97071.16;;;13.68;54.84
30873;BME280;17579;42.690;2.586;2023-03-16T11:18:29;97066.19;;;13.74;55.06
30873;BME280;17579;42.690;2.586;2023-03-16T11:21:01;97078.25;;;13.84;54.84
30873;BME280;17579;42.690;2.586;2023-03-16T11:23:33;97072.94;;;13.84;54.48
30873;BME280;17579;42.690;2.586;2023-03-16T11:26:07;97076.28;;;13.86;54.64
30873;BME280;17579;42.690;2.586;2023-03-16T11:28:41;97076.09;;;13.88;54.41
30873;BME280;17579;42.690;2.586;2023-03-16T11:33:35;97070.75;;;13.96;54.68
30873;BME280;17579;42.690;2.586;2023-03-16T11:43:48;97072.06;;;14.00;54.74
30873;BME280;17579;42.690;2.586;2023-03-16T11:48:52;97071.34;;;14.15;54.80
30873;BME280;17579;42.690;2.586;2023-03-16T11:54:00;97074.97;;;14.22;54.51
30873;BME280;17579;42.690;2.586;2023-03-16T11:56:33;97068.50;;;14.25;54.75
30873;BME280;17579;42.690;2.586;2023-03-16T12:17:19;97050.09;;;14.46;53.88
30873;BME280;17579;42.690;2.586;2023-03-16T12:19:55;97046.78;;;14.44;54.04
30873;BME280;17579;42.690;2.586;2023-03-16T12:22:44;97043.63;;;14.41;54.67
30873;BME280;17579;42.690;2.586;2023-03-16T12:25:16;97040.47;;;14.45;54.38
30873;BME280;17579;42.690;2.586;2023-03-16T12:27:47;97031.47;;;14.46;54.45
30873;BME280;17579;42.690;2.586;2023-03-16T12:33:03;97032.59;;;14.52;54.29
30873;BME280;17579;42.690;2.586;2023-03-16T12:35:42;97030.06;;;14.59;54.14
30873;BME280;17579;42.690;2.586;2023-03-16T12:38:38;97032.97;;;14.49;54.34
30873;BME280;17579;42.690;2.586;2023-03-16T12:46:44;97030.28;;;14.49;54.63
30873;BME280;17579;42.690;2.586;2023-03-16T12:49:12;97021.31;;;14.50;54.90
30873;BME280;17579;42.690;2.586;2023-03-16T12:51:41;97024.34;;;14.47;55.26
30873;BME280;17579;42.690;2.586;2023-03-16T12:56:43;97011.84;;;14.47;55.21
30873;BME280;17579;42.690;2.586;2023-03-16T12:59:15;97016.84;;;14.42;55.83
30873;BME280;17579;42.690;2.586;2023-03-16T13:01:43;97006.56;;;14.39;56.30
30873;BME280;17579;42.690;2.586;2023-03-16T13:04:13;97002.59;;;14.35;56.37
30873;BME280;17579;42.690;2.586;2023-03-16T13:06:43;96999.28;;;14.33;56.26
30873;BME280;17579;42.690;2.586;2023-03-16T13:09:11;97004.63;;;14.33;56.42
30873;BME280;17579;42.690;2.586;2023-03-16T13:11:45;96998.63;;;14.31;56.62
30873;BME280;17579;42.690;2.586;2023-03-16T13:14:29;97001.94;;;14.33;56.47
30873;BME280;17579;42.690;2.586;2023-03-16T13:19:27;97000.47;;;14.30;56.95
30873;BME280;17579;42.690;2.586;2023-03-16T13:24:27;96987.88;;;14.24;57.20
30873;BME280;17579;42.690;2.586;2023-03-16T13:26:57;97001.16;;;14.24;57.65
30873;BME280;17579;42.690;2.586;2023-03-16T13:29:29;96992.22;;;14.17;57.73
30873;BME280;17579;42.690;2.586;2023-03-16T13:31:59;96989.59;;;14.09;58.16
30873;BME280;17579;42.690;2.586;2023-03-16T13:34:29;96988.97;;;14.07;58.36
30873;BME280;17579;42.690;2.586;2023-03-16T13:36:57;96997.94;;;14.06;57.96
30873;BME280;17579;42.690;2.586;2023-03-16T13:39:25;96985.16;;;14.01;58.19
30873;BME280;17579;42.690;2.586;2023-03-16T13:41:53;96987.81;;;14.01;58.61
30873;BME280;17579;42.690;2.586;2023-03-16T13:44:22;96992.19;;;13.94;58.34
30873;BME280;17579;42.690;2.586;2023-03-16T13:46:48;96987.22;;;13.91;58.67
30873;BME280;17579;42.690;2.586;2023-03-16T13:49:15;96989.72;;;13.84;59.20
30873;BME280;17579;42.690;2.586;2023-03-16T13:51:42;96983.25;;;13.78;59.80
30873;BME280;17579;42.690;2.586;2023-03-16T13:54:28;96987.78;;;13.69;59.41
30873;BME280;17579;42.690;2.586;2023-03-16T13:56:56;96992.06;;;13.79;59.76
30873;BME280;17579;42.690;2.586;2023-03-16T13:59:23;96992.41;;;13.76;60.25
30873;BME280;17579;42.690;2.586;2023-03-16T14:01:54;97002.88;;;13.69;60.35
30873;BME280;17579;42.690;2.586;2023-03-16T14:04:24;96995.91;;;13.68;60.31
30873;BME280;17579;42.690;2.586;2023-03-16T14:06:58;97003.38;;;13.64;61.07
30873;BME280;17579;42.690;2.586;2023-03-16T14:09:31;97005.88;;;13.66;61.01
30873;BME280;17579;42.690;2.586;2023-03-16T14:11:58;97006.72;;;13.66;61.45
30873;BME280;17579;42.690;2.586;2023-03-16T14:16:51;97014.38;;;13.61;61.39
30873;BME280;17579;42.690;2.586;2023-03-16T14:19:20;97014.88;;;13.65;61.56
30873;BME280;17579;42.690;2.586;2023-03-16T14:21:49;97010.84;;;13.69;61.58